Time;durP1;ratioP1;P1;durP2;ratioP2;P2;SDS_P1;SDS_P2;PMS_P1;PMS_P2;Temp;Humidity;BMP_temperature;BMP_pressure;BME280_temperature;BME280_humidity;BME280_pressure;Samples;Min_cycle;Max_cycle;Signal;HPM_P1;HPM_P2
2023/10/17 00:01:49;;;;;;;3.42;3.22;;;;;;;5.52;100.00;102180.56;6218833;23;20072;-78
2023/10/17 00:06:53;;;;;;;5.85;3.50;;;;;;;5.51;100.00;102194.16;6219002;23;20028;-79
2023/10/17 00:09:26;;;;;;;6.25;3.47;;;;;;;5.50;100.00;102192.63;6218230;23;20423;-78
2023/10/17 00:14:35;;;;;;;7.45;3.60;;;;;;;5.47;100.00;102196.00;6191838;23;20457;-78
2023/10/17 00:17:06;;;;;;;6.30;3.50;;;;;;;5.48;100.00;102194.88;6193761;23;20013;-78
2023/10/17 00:19:32;;;;;;;7.07;3.70;;;;;;;5.47;100.00;102188.09;6193230;23;20113;-78
2023/10/17 00:22:02;;;;;;;4.40;3.70;;;;;;;5.45;100.00;102185.81;6193553;23;20477;-78
2023/10/17 00:24:29;;;;;;;7.38;3.60;;;;;;;5.45;100.00;102190.34;6192906;23;20452;-79
2023/10/17 00:26:57;;;;;;;6.13;3.78;;;;;;;5.44;100.00;102192.22;6192508;23;20017;-78
2023/10/17 00:29:24;;;;;;;5.75;3.60;;;;;;;5.44;100.00;102178.25;6219344;23;20017;-79
2023/10/17 00:31:50;;;;;;;6.07;3.78;;;;;;;5.45;100.00;102174.50;6193648;23;20027;-78
2023/10/17 00:34:23;;;;;;;7.15;3.60;;;;;;;5.44;100.00;102168.44;6192740;23;20458;-78
2023/10/17 00:36:51;;;;;;;4.53;3.65;;;;;;;5.45;100.00;102169.22;6193771;23;20017;-78
2023/10/17 00:39:32;;;;;;;5.65;3.63;;;;;;;5.44;100.00;102163.16;6219763;23;20458;-78
2023/10/17 00:44:37;;;;;;;3.88;3.58;;;;;;;5.44;100.00;102163.16;6192730;23;20041;-78
2023/10/17 00:47:06;;;;;;;4.40;3.38;;;;;;;5.44;100.00;102151.84;6193081;23;20051;-78
2023/10/17 00:49:44;;;;;;;5.72;3.50;;;;;;;5.44;100.00;102157.13;6192488;23;20053;-78
2023/10/17 00:52:25;;;;;;;4.22;3.83;;;;;;;5.43;100.00;102155.63;6192973;23;20095;-77
2023/10/17 00:54:57;;;;;;;4.25;3.85;;;;;;;5.43;100.00;102160.91;6192772;23;20336;-78
2023/10/17 00:57:26;;;;;;;8.07;3.88;;;;;;;5.43;100.00;102153.72;6219419;23;20017;-78
2023/10/17 01:00:11;;;;;;;4.43;3.70;;;;;;;5.43;100.00;102153.72;6169119;23;20020;-78
2023/10/17 01:02:47;;;;;;;5.05;3.25;;;;;;;5.44;100.00;102141.28;6193404;23;20017;-78
2023/10/17 01:05:15;;;;;;;7.68;3.42;;;;;;;5.45;100.00;102148.84;6193231;23;20039;-77
2023/10/17 01:07:41;;;;;;;4.75;3.60;;;;;;;5.44;100.00;102147.31;6168210;23;20021;-77
2023/10/17 01:10:13;;;;;;;8.13;3.60;;;;;;;5.43;100.00;102140.53;6191937;23;20036;-77
2023/10/17 01:12:54;;;;;;;6.50;3.88;;;;;;;5.43;100.00;102150.34;6193340;23;20092;-77
2023/10/17 01:15:27;;;;;;;5.80;3.90;;;;;;;5.43;100.00;102139.75;6219235;23;20041;-78
2023/10/17 01:17:57;;;;;;;4.03;3.38;;;;;;;5.42;100.00;102139.00;6193108;23;20450;-77
2023/10/17 01:20:24;;;;;;;3.95;3.60;;;;;;;5.43;100.00;102135.25;6192029;23;20080;-77
2023/10/17 01:22:56;;;;;;;3.90;3.50;;;;;;;5.43;100.00;102140.53;6219809;23;20498;-78
2023/10/17 01:25:29;;;;;;;3.90;3.13;;;;;;;5.42;100.00;102132.97;6218069;23;20447;-77
2023/10/17 01:27:58;;;;;;;3.97;3.58;;;;;;;5.40;100.00;102132.59;6220122;23;20025;-78
2023/10/17 01:30:29;;;;;;;4.15;3.50;;;;;;;5.38;100.00;102143.50;6191945;23;20123;-78
2023/10/17 01:32:57;;;;;;;3.88;3.55;;;;;;;5.37;100.00;102128.78;6217935;23;20777;-78
2023/10/17 01:35:25;;;;;;;3.92;3.50;;;;;;;5.36;100.00;102124.63;6191893;23;20017;-78
2023/10/17 01:37:52;;;;;;;7.60;3.30;;;;;;;5.36;100.00;102129.91;6192219;23;20021;-78
2023/10/17 01:40:28;;;;;;;5.38;3.92;;;;;;;5.38;100.00;102135.59;6219395;23;20072;-78
2023/10/17 01:42:59;;;;;;;4.63;3.55;;;;;;;5.40;100.00;102143.16;6193064;23;20021;-78
2023/10/17 01:45:30;;;;;;;4.72;3.55;;;;;;;5.37;100.00;102136.72;6192029;23;20139;-78
2023/10/17 01:47:58;;;;;;;4.07;3.58;;;;;;;5.37;100.00;102136.72;6193281;23;20410;-78
2023/10/17 01:50:25;;;;;;;3.75;3.45;;;;;;;5.38;100.00;102129.53;6218676;23;20805;-78
2023/10/17 01:52:58;;;;;;;4.80;3.58;;;;;;;5.36;100.00;102129.91;6192263;23;20415;-78
2023/10/17 01:55:25;;;;;;;6.22;3.67;;;;;;;5.38;100.00;102121.63;6219576;23;20020;-78
2023/10/17 01:57:54;;;;;;;4.40;3.67;;;;;;;5.37;100.00;102123.50;6219960;23;20044;-78
2023/10/17 02:00:25;;;;;;;3.60;3.30;;;;;;;5.39;100.00;102123.16;6191720;23;20087;-77
2023/10/17 02:02:54;;;;;;;3.92;3.50;;;;;;;5.36;100.00;102122.75;6193027;23;20060;-77
2023/10/17 02:05:22;;;;;;;9.93;3.60;;;;;;;5.36;100.00;102120.09;6191646;23;20407;-77
2023/10/17 02:07:49;;;;;;;4.10;3.70;;;;;;;5.37;100.00;102118.22;6217005;23;20021;-77
2023/10/17 02:10:21;;;;;;;5.00;2.78;;;;;;;5.36;100.00;102104.25;6192020;23;20368;-77
2023/10/17 02:12:48;;;;;;;3.35;3.05;;;;;;;5.38;100.00;102103.13;6219735;23;20017;-77
2023/10/17 02:15:24;;;;;;;3.33;3.03;;;;;;;5.40;100.00;102106.16;6219313;23;20044;-77
2023/10/17 02:17:53;;;;;;;3.40;3.20;;;;;;;5.41;100.00;102100.53;6219615;23;20020;-77
2023/10/17 02:20:30;;;;;;;4.30;3.63;;;;;;;5.40;100.00;102095.59;6191512;23;20021;-77
2023/10/17 02:23:19;;;;;;;4.57;3.10;;;;;;;5.40;100.00;102099.00;6192361;23;20052;-77
2023/10/17 02:25:46;;;;;;;6.90;3.80;;;;;;;5.41;100.00;102099.75;6219906;23;20044;-78
2023/10/17 02:28:12;;;;;;;6.15;4.05;;;;;;;5.42;100.00;102098.63;6192499;23;20133;-78
2023/10/17 02:30:39;;;;;;;4.50;3.42;;;;;;;5.43;100.00;102103.56;6219374;23;20017;-78
2023/10/17 02:33:17;;;;;;;4.57;3.60;;;;;;;5.45;100.00;102103.94;6192581;23;20447;-78
2023/10/17 02:36:05;;;;;;;8.90;3.40;;;;;;;5.47;100.00;102104.31;6219433;23;20021;-78
2023/10/17 02:38:32;;;;;;;4.40;3.38;;;;;;;5.49;100.00;102096.78;6219403;23;20017;-78
2023/10/17 02:40:59;;;;;;;4.30;3.90;;;;;;;5.51;100.00;102097.19;6192956;23;20029;-78
2023/10/17 02:43:28;;;;;;;7.93;3.35;;;;;;;5.53;100.00;102099.44;6191750;23;20025;-78
2023/10/17 02:46:04;;;;;;;5.13;3.58;;;;;;;5.53;100.00;102102.09;6192807;23;20021;-78
2023/10/17 02:48:37;;;;;;;7.65;3.35;;;;;;;5.54;100.00;102101.72;6218913;23;20017;-78
2023/10/17 02:53:51;;;;;;;4.80;3.63;;;;;;;5.58;100.00;102099.84;6192793;23;20021;-78
2023/10/17 02:56:18;;;;;;;5.28;3.53;;;;;;;5.59;100.00;102098.72;6219433;23;20023;-78
2023/10/17 02:59:11;;;;;;;4.47;3.78;;;;;;;5.62;100.00;102100.59;6192424;23;20080;-78
2023/10/17 03:01:42;;;;;;;6.28;3.50;;;;;;;5.64;100.00;102095.69;6192463;23;20021;-78
2023/10/17 03:04:12;;;;;;;3.78;3.30;;;;;;;5.66;100.00;102098.72;6218998;23;20395;-76
2023/10/17 03:06:44;;;;;;;4.20;3.42;;;;;;;5.68;100.00;102096.47;6191596;23;20049;-77
2023/10/17 03:17:12;;;;;;;3.33;3.10;;;;;;;5.77;100.00;102085.56;6219091;23;20013;-77
2023/10/17 03:19:39;;;;;;;4.15;3.10;;;;;;;5.78;100.00;102092.34;6191264;23;20017;-77
2023/10/17 03:22:26;;;;;;;5.80;3.50;;;;;;;5.80;100.00;102089.34;6191828;23;20025;-77
2023/10/17 03:25:18;;;;;;;5.72;3.50;;;;;;;5.82;100.00;102087.09;6219281;23;20083;-77
2023/10/17 03:27:49;;;;;;;4.22;3.10;;;;;;;5.85;100.00;102088.97;6219435;23;20056;-77
2023/10/17 03:30:19;;;;;;;5.43;3.10;;;;;;;5.87;100.00;102082.19;6192012;23;20027;-77
2023/10/17 03:33:05;;;;;;;6.60;3.70;;;;;;;5.89;100.00;102081.84;6219062;23;20033;-77
2023/10/17 03:35:35;;;;;;;4.78;3.30;;;;;;;5.91;100.00;102087.50;6191594;23;20049;-77
2023/10/17 03:38:08;;;;;;;4.30;3.25;;;;;;;5.93;100.00;102087.91;6219082;23;20455;-77
2023/10/17 03:40:41;;;;;;;4.15;3.58;;;;;;;5.93;100.00;102095.81;6191916;23;20458;-79
2023/10/17 03:43:15;;;;;;;4.53;3.22;;;;;;;5.94;100.00;102092.81;6191621;23;20563;-77
2023/10/17 03:45:45;;;;;;;3.60;3.30;;;;;;;5.96;100.00;102105.66;6218775;23;20020;-76
2023/10/17 03:48:15;;;;;;;3.50;3.20;;;;;;;5.97;100.00;102109.81;6218881;23;20013;-76
2023/10/17 03:53:15;;;;;;;4.97;4.00;;;;;;;5.99;100.00;102110.97;6220329;23;20021;-77
2023/10/17 03:55:45;;;;;;;4.93;3.83;;;;;;;6.00;100.00;102106.41;6219906;23;20048;-77
2023/10/17 04:00:53;;;;;;;8.13;3.65;;;;;;;6.03;100.00;102109.06;6193488;23;20043;-77
2023/10/17 04:03:27;;;;;;;8.52;3.95;;;;;;;6.03;100.00;102122.28;6218787;23;20025;-77
2023/10/17 04:06:16;;;;;;;5.18;3.53;;;;;;;6.05;100.00;102121.91;6168922;23;20103;-77
2023/10/17 04:08:49;;;;;;;7.05;3.90;;;;;;;6.07;100.00;102126.81;6193436;23;20020;-77
2023/10/17 04:13:49;;;;;;;6.60;3.67;;;;;;;6.07;100.00;102127.56;6193469;23;20025;-77
2023/10/17 04:16:21;;;;;;;5.93;3.45;;;;;;;6.09;100.00;102127.19;6193186;23;20025;-77
2023/10/17 04:18:54;;;;;;;6.35;3.53;;;;;;;6.09;100.00;102138.53;6193138;23;20092;-77
2023/10/17 04:21:29;;;;;;;4.60;3.63;;;;;;;6.11;100.00;102138.91;6192888;23;20044;-77
2023/10/17 04:23:59;;;;;;;16.40;3.80;;;;;;;6.10;100.00;102132.09;6193483;23;20096;-77
2023/10/17 04:26:35;;;;;;;5.22;3.65;;;;;;;6.11;100.00;102130.22;6219266;23;20020;-77
2023/10/17 04:29:21;;;;;;;5.53;3.78;;;;;;;6.12;100.00;102135.13;6193619;23;20108;-77
2023/10/17 04:31:47;;;;;;;12.32;3.80;;;;;;;6.13;100.00;102138.53;6220155;23;20042;-77
2023/10/17 04:34:21;;;;;;;9.07;3.67;;;;;;;6.14;100.00;102134.75;6219152;23;20162;-77
2023/10/17 04:36:51;;;;;;;12.13;3.95;;;;;;;6.13;100.00;102131.38;6192913;23;20403;-77
2023/10/17 04:44:21;;;;;;;4.70;3.55;;;;;;;6.13;100.00;102128.72;6192161;23;20056;-77
2023/10/17 04:46:51;;;;;;;5.53;3.75;;;;;;;6.14;100.00;102132.88;6219129;23;20092;-77
2023/10/17 04:49:24;;;;;;;6.30;4.05;;;;;;;6.13;100.00;102135.91;6219472;23;20427;-77
2023/10/17 04:52:10;;;;;;;4.93;4.30;;;;;;;6.12;100.00;102132.50;6219931;23;20017;-77
2023/10/17 04:57:05;;;;;;;4.30;3.67;;;;;;;6.13;100.00;102130.59;6219603;23;20013;-77
2023/10/17 06:19:18;;;;;;;7.85;5.70;;;;;;;5.68;100.00;102098.34;6097068;23;20086;-77
2023/10/17 06:32:49;;;;;;;6.65;5.88;;;;;;;5.64;100.00;102106.25;6219349;23;20097;-80
2023/10/17 06:35:23;;;;;;;7.38;5.55;;;;;;;5.62;100.00;102097.19;6191681;23;20080;-79
2023/10/17 06:37:50;;;;;;;9.77;6.20;;;;;;;5.62;100.00;102103.22;6219453;23;20021;-80
2023/10/17 06:40:16;;;;;;;9.68;6.53;;;;;;;5.61;100.00;102104.38;6192572;23;20047;-79
2023/10/17 06:42:50;;;;;;;9.80;6.57;;;;;;;5.62;100.00;102105.88;6190291;23;20076;-79
2023/10/17 06:45:20;;;;;;;11.50;6.88;;;;;;;5.63;100.00;102096.06;6191076;23;20021;-78
2023/10/17 06:47:49;;;;;;;9.10;6.03;;;;;;;5.64;100.00;102108.16;6218494;23;20451;-78
2023/10/17 06:50:17;;;;;;;9.50;6.55;;;;;;;5.66;100.00;102113.81;6218113;23;20403;-79
2023/10/17 06:55:34;;;;;;;8.52;6.10;;;;;;;5.70;100.00;102111.94;6217960;23;20178;-79
2023/10/17 06:58:11;;;;;;;8.10;5.93;;;;;;;5.73;100.00;102105.94;6217827;23;20549;-77
2023/10/17 07:00:43;;;;;;;12.68;6.70;;;;;;;5.74;100.00;102107.44;6191626;23;20387;-79
2023/10/17 07:03:14;;;;;;;6.95;6.20;;;;;;;5.78;100.00;102118.78;6190985;23;20032;-79
2023/10/17 07:05:49;;;;;;;11.70;6.57;;;;;;;5.85;100.00;102118.81;6218136;23;20020;-79
2023/10/17 07:08:22;;;;;;;8.15;6.45;;;;;;;5.92;100.00;102116.22;6217857;23;20439;-80
2023/10/17 07:16:41;;;;;;;8.18;6.18;;;;;;;6.20;100.00;102106.81;6217932;23;20013;-79
2023/10/17 07:24:29;;;;;;;10.15;6.10;;;;;;;6.41;100.00;102100.78;6216790;23;20025;-78
2023/10/17 07:26:56;;;;;;;9.57;6.22;;;;;;;6.48;100.00;102103.44;6219499;23;20024;-82
2023/10/17 07:29:22;;;;;;;7.65;6.43;;;;;;;6.54;100.00;102107.97;6219250;23;20344;-89
2023/10/17 07:31:54;;;;;;;8.48;6.07;;;;;;;6.60;100.00;102113.66;6218705;23;20514;-83
2023/10/17 07:34:22;;;;;;;8.40;6.22;;;;;;;6.67;100.00;102103.81;6217633;23;20051;-80
2023/10/17 07:36:58;;;;;;;9.48;6.13;;;;;;;6.77;100.00;102110.25;6218406;23;20094;-81
2023/10/17 07:39:29;;;;;;;6.05;5.32;;;;;;;6.83;100.00;102113.25;6218929;23;20406;-79
2023/10/17 07:41:56;;;;;;;9.98;6.15;;;;;;;6.93;100.00;102112.50;6192430;23;20018;-80
2023/10/17 07:44:25;;;;;;;7.07;6.05;;;;;;;7.02;100.00;102116.25;6218475;23;20044;-81
2023/10/17 07:47:19;;;;;;;9.20;6.40;;;;;;;7.14;100.00;102120.41;6219334;23;20473;-82
2023/10/17 07:49:49;;;;;;;11.52;6.07;;;;;;;7.24;100.00;102113.56;6192937;23;20104;-80
2023/10/17 07:52:23;;;;;;;7.85;6.05;;;;;;;7.35;100.00;102116.94;6218038;23;20020;-80
2023/10/17 07:54:57;;;;;;;9.27;5.95;;;;;;;7.43;100.00;102118.44;6217809;23;20092;-78
2023/10/17 07:57:25;;;;;;;7.82;6.25;;;;;;;7.52;100.00;102113.47;6217326;23;20013;-79
2023/10/17 07:59:52;;;;;;;15.55;6.70;;;;;;;7.59;100.00;102118.00;6218265;23;20013;-79
2023/10/17 08:02:20;;;;;;;7.35;5.95;;;;;;;7.66;100.00;102117.94;6217614;23;20029;-80
2023/10/17 08:04:52;;;;;;;7.70;6.57;;;;;;;7.77;100.00;102120.56;6217649;23;20128;-77
2023/10/17 08:07:22;;;;;;;10.05;6.68;;;;;;;7.87;100.00;102115.22;6190546;23;20017;-79
2023/10/17 08:09:59;;;;;;;9.02;6.40;;;;;;;7.94;100.00;102101.91;6216893;23;20177;-78
2023/10/17 08:12:29;;;;;;;12.63;6.15;;;;;;;8.12;100.00;102107.09;6216911;23;20017;-75
2023/10/17 08:14:58;;;;;;;9.75;5.93;;;;;;;8.25;100.00;102102.84;6217158;23;20025;-74
2023/10/17 08:17:34;;;;;;;9.32;6.40;;;;;;;8.32;100.00;102110.00;6217216;23;20043;-76
2023/10/17 08:20:08;;;;;;;8.68;5.70;;;;;;;8.36;100.00;102097.50;6217969;23;20422;-78
2023/10/17 08:23:06;;;;;;;10.05;5.70;;;;;;;8.40;100.00;102095.53;6191643;23;20428;-80
2023/10/17 08:25:40;;;;;;;8.10;5.90;;;;;;;8.50;100.00;102092.06;6190307;23;20021;-80
2023/10/17 08:28:31;;;;;;;8.48;5.68;;;;;;;8.61;100.00;102092.72;6217585;23;20019;-80
2023/10/17 08:30:53;;;;;;;12.93;5.65;;;;;;;8.70;99.27;102097.59;6217523;23;20021;-79
2023/10/17 08:33:31;;;;;;;8.55;5.68;;;;;;;8.79;99.30;102103.19;6216517;23;20463;-77
2023/10/17 08:36:01;;;;;;;6.28;5.68;;;;;;;8.85;98.55;102103.50;6191943;23;20025;-78
2023/10/17 08:38:32;;;;;;;7.55;5.22;;;;;;;8.89;97.05;102097.00;6165538;23;20017;-77
2023/10/17 08:41:06;;;;;;;8.07;6.13;;;;;;;8.96;97.52;102096.19;6192670;23;20021;-76
2023/10/17 08:43:36;;;;;;;8.95;7.43;;;;;;;8.99;96.21;102103.38;6218509;23;20089;-77
2023/10/17 08:46:07;;;;;;;11.57;9.10;;;;;;;9.06;96.02;102113.94;6167504;23;20021;-78
2023/10/17 08:48:36;;;;;;;12.70;11.18;;;;;;;9.14;95.00;102115.38;6192520;23;20426;-78
2023/10/17 08:51:06;;;;;;;15.43;11.73;;;;;;;9.20;95.55;102113.00;6167356;23;20029;-76
2023/10/17 08:53:38;;;;;;;16.95;13.50;;;;;;;9.24;94.47;102119.03;6217769;23;20013;-80
2023/10/17 08:56:07;;;;;;;12.18;10.38;;;;;;;9.26;92.39;102114.09;6192334;23;20025;-83
2023/10/17 08:58:36;;;;;;;9.60;8.48;;;;;;;9.26;92.20;102114.84;6191875;23;20090;-80
2023/10/17 09:01:14;;;;;;;11.65;7.35;;;;;;;9.37;91.71;102120.03;6219128;23;20170;-79
2023/10/17 09:03:46;;;;;;;5.80;5.20;;;;;;;9.39;90.59;102120.41;6218958;23;20021;-77
2023/10/17 09:11:33;;;;;;;3.80;3.50;;;;;;;9.45;89.08;102129.44;6186031;23;20032;-79
2023/10/17 09:14:17;;;;;;;10.00;4.00;;;;;;;9.51;88.83;102125.22;6188614;23;20341;-79
2023/10/17 09:17:00;;;;;;;4.25;3.70;;;;;;;9.63;88.51;102127.31;6187696;23;20085;-79
2023/10/17 09:19:26;;;;;;;4.13;3.67;;;;;;;9.62;88.10;102123.16;6188459;23;20013;-79
2023/10/17 09:21:53;;;;;;;3.70;3.40;;;;;;;9.66;87.61;102115.88;6186844;23;20542;-78
2023/10/17 09:24:37;;;;;;;3.90;3.53;;;;;;;9.77;88.39;102120.31;6187755;23;20104;-78
2023/10/17 09:27:12;;;;;;;4.47;4.15;;;;;;;9.82;87.39;102133.16;6187399;23;20053;-78
2023/10/17 09:29:48;;;;;;;8.13;4.10;;;;;;;9.89;87.81;102125.84;6188512;23;20009;-79
2023/10/17 09:32:40;;;;;;;6.63;5.03;;;;;;;9.89;87.72;102125.84;6188439;23;20013;-79
2023/10/17 09:35:13;;;;;;;6.72;6.00;;;;;;;9.95;86.86;102129.59;6186149;23;20104;-79
2023/10/17 09:37:51;;;;;;;9.38;6.95;;;;;;;10.02;86.79;102123.38;6187603;23;20482;-80
2023/10/17 09:40:33;;;;;;;9.40;6.82;;;;;;;10.09;86.66;102130.50;6188367;23;20021;-80
2023/10/17 09:43:00;;;;;;;13.63;7.32;;;;;;;10.11;86.57;102130.88;6187399;23;20024;-79
2023/10/17 09:45:33;;;;;;;9.57;7.43;;;;;;;10.22;87.02;102128.84;6187634;23;20021;-77
2023/10/17 09:48:06;;;;;;;9.82;5.45;;;;;;;10.20;85.84;102136.47;6188828;23;20021;-78
2023/10/17 09:50:37;;;;;;;7.18;5.38;;;;;;;10.18;86.35;102130.78;6187372;23;20072;-84
2023/10/17 09:53:29;;;;;;;7.78;5.28;;;;;;;10.21;86.71;102130.00;6188864;23;20045;-74
2023/10/17 09:55:58;;;;;;;6.53;5.60;;;;;;;10.19;85.70;102130.41;6189221;23;20028;-75
2023/10/17 09:58:28;;;;;;;7.10;5.10;;;;;;;10.22;85.57;102134.91;6186674;23;20225;-76
2023/10/17 10:01:00;;;;;;;7.65;5.00;;;;;;;10.24;85.36;102134.53;6189485;23;20017;-76
2023/10/17 10:03:28;;;;;;;6.15;5.00;;;;;;;10.26;85.70;102140.94;6188605;23;20022;-81
2023/10/17 10:06:21;;;;;;;9.38;5.55;;;;;;;10.29;85.49;102137.47;6188305;23;20014;-77
2023/10/17 10:08:54;;;;;;;5.80;5.10;;;;;;;10.32;84.65;102125.28;6187658;23;20022;-77
2023/10/17 10:11:20;;;;;;;5.93;4.82;;;;;;;10.37;85.03;102126.72;6209784;23;20044;-78
2023/10/17 10:14:08;;;;;;;4.88;4.43;;;;;;;10.42;84.90;102129.66;6219376;23;20044;-78
2023/10/17 10:16:57;;;;;;;11.18;4.88;;;;;;;10.48;85.21;102128.06;6217414;23;20145;-77
2023/10/17 10:19:44;;;;;;;6.22;4.82;;;;;;;10.50;83.96;102124.97;6218627;23;20136;-75
2023/10/17 10:22:12;;;;;;;8.82;4.70;;;;;;;10.51;83.83;102129.16;6217702;23;20020;-76
2023/10/17 10:24:41;;;;;;;5.55;4.82;;;;;;;10.52;83.35;102128.75;6191596;23;20025;-77
2023/10/17 10:27:14;;;;;;;8.32;4.68;;;;;;;10.51;83.70;102121.91;6192310;23;20391;-75
2023/10/17 10:29:41;;;;;;;8.18;4.40;;;;;;;10.51;83.69;102113.94;6192255;23;20020;-78
2023/10/17 10:32:35;;;;;;;6.47;4.15;;;;;;;10.53;83.67;102102.88;6219133;23;20358;-79
2023/10/17 10:35:06;;;;;;;5.55;4.82;;;;;;;10.54;83.28;102097.16;6219098;23;20024;-82
2023/10/17 10:37:51;;;;;;;5.45;4.10;;;;;;;10.63;83.82;102104.63;6219255;23;20024;-77
2023/10/17 10:40:22;;;;;;;4.55;4.15;;;;;;;10.63;83.09;102092.06;6219022;23;20017;-78
2023/10/17 10:42:51;;;;;;;3.92;3.45;;;;;;;10.68;83.53;102088.16;6219442;23;20088;-82
2023/10/17 10:45:31;;;;;;;4.95;3.63;;;;;;;10.73;82.88;102079.72;6218841;23;20017;-83
2023/10/17 10:47:59;;;;;;;5.18;4.03;;;;;;;10.71;81.49;102076.69;6192560;23;20028;-80
2023/10/17 10:50:30;;;;;;;5.82;3.60;;;;;;;10.74;81.44;102075.13;6217861;23;20511;-82
2023/10/17 10:53:01;;;;;;;7.10;3.70;;;;;;;10.74;81.25;102073.22;6219358;23;20444;-80
2023/10/17 10:55:28;;;;;;;7.03;3.67;;;;;;;10.73;80.15;102068.31;6191876;23;20213;-83
2023/10/17 10:57:54;;;;;;;3.58;3.28;;;;;;;10.75;80.64;102060.66;6219169;23;20009;-81
2023/10/17 11:00:21;;;;;;;8.23;3.78;;;;;;;10.77;79.51;102053.03;6191790;23;20025;-80
2023/10/17 11:02:48;;;;;;;3.38;2.90;;;;;;;10.76;79.52;102051.50;6219086;23;20017;-84
2023/10/17 11:05:15;;;;;;;4.70;3.00;;;;;;;10.75;79.72;102048.09;6217950;23;20075;-81
2023/10/17 11:07:42;;;;;;;5.30;3.10;;;;;;;10.77;79.15;102045.03;6218758;23;20446;-83
2023/10/17 11:10:18;;;;;;;5.32;2.90;;;;;;;10.82;79.94;102045.28;6191361;23;20108;-82
2023/10/17 11:12:53;;;;;;;3.70;2.80;;;;;;;10.88;79.75;102048.22;6192675;23;20071;-83
2023/10/17 11:15:26;;;;;;;7.03;3.08;;;;;;;10.88;78.95;102046.31;6216979;23;20021;-82
2023/10/17 11:18:03;;;;;;;6.90;2.67;;;;;;;10.89;78.86;102047.81;6191691;23;20021;-83
2023/10/17 11:20:30;;;;;;;3.75;3.00;;;;;;;10.89;78.51;102047.81;6218305;23;20092;-83
2023/10/17 11:22:56;;;;;;;3.15;2.67;;;;;;;10.91;77.87;102050.06;6219131;23;20017;-83
2023/10/17 11:25:26;;;;;;;7.90;2.90;;;;;;;10.91;77.74;102042.84;6219302;23;20024;-82
2023/10/17 11:28:02;;;;;;;3.03;2.83;;;;;;;10.95;77.93;102034.78;6219027;23;20017;-79
2023/10/17 11:30:39;;;;;;;3.08;2.42;;;;;;;10.99;78.26;102033.53;6192411;23;20017;-86
2023/10/17 11:33:11;;;;;;;5.95;2.70;;;;;;;11.08;78.42;102030.34;6218130;23;20096;-81
2023/10/17 11:35:49;;;;;;;4.60;2.83;;;;;;;11.17;77.98;102027.13;6191921;23;20020;-79
2023/10/17 11:38:46;;;;;;;4.50;2.63;;;;;;;11.14;77.21;102033.28;6218295;23;20443;-81
2023/10/17 11:41:15;;;;;;;3.88;2.50;;;;;;;11.12;76.09;102025.69;6218435;23;20025;-81
2023/10/17 11:43:51;;;;;;;3.10;2.80;;;;;;;11.14;76.30;102030.59;6218827;23;20017;-81
2023/10/17 11:46:31;;;;;;;4.38;2.45;;;;;;;11.16;76.24;102025.63;6218689;23;20016;-80
2023/10/17 11:49:32;;;;;;;3.40;2.40;;;;;;;11.16;75.65;102014.97;6218177;23;20399;-80
2023/10/17 11:52:00;;;;;;;6.03;2.30;;;;;;;11.19;74.94;102019.47;6218563;23;20028;-80
2023/10/17 11:54:31;;;;;;;4.60;2.50;;;;;;;11.21;75.59;102003.78;6217776;23;20028;-81
2023/10/17 11:57:15;;;;;;;2.53;2.30;;;;;;;11.28;76.08;102011.63;6218640;23;20093;-80
2023/10/17 12:00:19;;;;;;;5.28;2.80;;;;;;;11.30;76.04;102014.66;6191654;23;20426;-81
2023/10/17 12:02:47;;;;;;;4.63;2.50;;;;;;;11.34;75.82;102010.75;6192024;23;20040;-82
2023/10/17 12:05:18;;;;;;;2.88;2.67;;;;;;;11.35;75.12;102004.25;6218031;23;20063;-82
2023/10/17 12:07:49;;;;;;;3.38;2.60;;;;;;;11.35;75.21;102006.16;6218756;23;20467;-81
2023/10/17 12:10:16;;;;;;;3.20;2.42;;;;;;;11.37;74.76;102001.16;6218467;23;20017;-81
2023/10/17 12:12:43;;;;;;;3.22;2.88;;;;;;;11.32;74.70;102001.66;6168119;23;20371;-81
2023/10/17 12:15:13;;;;;;;4.07;2.72;;;;;;;11.32;74.95;101994.41;6193227;23;20100;-82
2023/10/17 12:17:41;;;;;;;6.13;2.35;;;;;;;11.32;74.38;101980.31;6219343;23;20166;-82
2023/10/17 12:20:11;;;;;;;2.88;2.35;;;;;;;11.31;74.17;101984.16;6219562;23;20013;-82
2023/10/17 12:22:39;;;;;;;3.38;2.42;;;;;;;11.35;73.11;101974.16;6192881;23;20063;-80
2023/10/17 12:25:10;;;;;;;4.25;2.60;;;;;;;11.36;72.90;101971.09;6193089;23;20446;-80
2023/10/17 12:27:40;;;;;;;2.60;2.40;;;;;;;11.37;73.57;101963.84;6219892;23;20059;-80
2023/10/17 12:30:11;;;;;;;3.25;2.45;;;;;;;11.38;73.06;101962.69;6219580;23;20021;-81
2023/10/17 12:32:37;;;;;;;3.15;2.70;;;;;;;11.42;72.91;101957.25;6219143;23;20017;-82
2023/10/17 12:35:07;;;;;;;4.50;2.30;;;;;;;11.40;71.87;101968.34;6219818;23;20072;-79
2023/10/17 12:37:43;;;;;;;6.15;2.63;;;;;;;11.38;72.14;101944.00;6192278;23;20414;-80
2023/10/17 12:40:22;;;;;;;3.65;2.45;;;;;;;11.39;71.83;101945.50;6193005;23;20024;-80
2023/10/17 12:42:55;;;;;;;2.30;2.05;;;;;;;11.39;71.65;101940.19;6219995;23;20391;-79
2023/10/17 12:45:24;;;;;;;4.07;2.20;;;;;;;11.41;72.28;101937.84;6218390;23;20021;-81
2023/10/17 12:47:51;;;;;;;2.65;2.45;;;;;;;11.43;72.09;101927.53;6192502;23;20024;-79
2023/10/17 12:50:20;;;;;;;2.67;2.40;;;;;;;11.44;71.46;101923.69;6220097;23;20036;-89
2023/10/17 12:52:48;;;;;;;2.50;2.30;;;;;;;11.45;71.41;101917.19;6194853;23;20021;-88
2023/10/17 12:55:14;;;;;;;4.85;2.55;;;;;;;11.48;71.44;101912.94;6219644;23;20482;-80
2023/10/17 12:57:43;;;;;;;3.13;2.22;;;;;;;11.53;72.10;101917.78;6219328;23;20414;-82
2023/10/17 13:00:11;;;;;;;2.17;1.98;;;;;;;11.60;72.18;101909.59;6218720;23;20072;-82
2023/10/17 13:02:38;;;;;;;5.93;2.40;;;;;;;11.64;71.72;101897.66;6192831;23;20017;-79
2023/10/17 13:05:10;;;;;;;3.15;2.15;;;;;;;11.63;70.79;101900.75;6219602;23;20013;-81
2023/10/17 13:07:38;;;;;;;3.72;2.53;;;;;;;11.62;71.21;101897.34;6192803;23;20020;-81
2023/10/17 13:10:07;;;;;;;2.35;2.15;;;;;;;11.60;70.50;101907.66;6218969;23;20083;-82
2023/10/17 13:12:33;;;;;;;3.92;2.22;;;;;;;11.60;70.94;101905.00;6219261;23;20052;-81
2023/10/17 13:15:00;;;;;;;2.65;2.45;;;;;;;11.63;70.47;101906.09;6219009;23;20013;-82
2023/10/17 13:17:28;;;;;;;2.50;2.20;;;;;;;11.62;70.26;101905.34;6218565;23;20013;-82
2023/10/17 13:19:57;;;;;;;2.40;1.92;;;;;;;11.61;71.07;101900.41;6192954;23;20017;-82
2023/10/17 13:22:24;;;;;;;2.20;2.10;;;;;;;11.63;70.13;101890.09;6218562;23;20017;-81
2023/10/17 13:24:50;;;;;;;3.13;2.20;;;;;;;11.62;71.13;101892.00;6219504;23;20023;-80
2023/10/17 13:27:17;;;;;;;3.78;2.10;;;;;;;11.60;70.09;101883.66;6193585;23;20416;-80
2023/10/17 13:29:47;;;;;;;2.53;2.40;;;;;;;11.61;70.02;101874.50;6219171;23;20013;-80
2023/10/17 13:32:14;;;;;;;4.07;2.38;;;;;;;11.62;70.74;101878.66;6219023;23;20096;-80
2023/10/17 13:34:40;;;;;;;2.60;2.33;;;;;;;11.62;70.60;101868.00;6219130;23;20017;-81
2023/10/17 13:37:11;;;;;;;2.50;2.30;;;;;;;11.61;70.48;101871.09;6220005;23;20017;-81
2023/10/17 13:39:38;;;;;;;6.53;2.23;;;;;;;11.60;70.61;101865.00;6193682;23;20092;-80
2023/10/17 13:42:05;;;;;;;4.30;1.95;;;;;;;11.60;69.96;101867.66;6222248;23;20248;-80
2023/10/17 13:44:34;;;;;;;3.20;2.03;;;;;;;11.61;69.89;101871.84;6220278;23;20024;-81
2023/10/17 13:47:01;;;;;;;9.00;2.35;;;;;;;11.61;69.98;101866.50;6195223;23;20370;-81
2023/10/17 13:49:29;;;;;;;6.93;2.35;;;;;;;11.56;69.99;101869.69;6167476;23;20028;-78
2023/10/17 13:51:58;;;;;;;3.80;2.67;;;;;;;11.54;69.90;101869.38;6219557;23;20076;-79
2023/10/17 13:54:34;;;;;;;3.22;2.70;;;;;;;11.54;70.65;101863.28;6220696;23;20017;-91
2023/10/17 13:57:03;;;;;;;2.28;2.17;;;;;;;11.56;70.30;101858.28;6195075;23;20081;-84
2023/10/17 13:59:38;;;;;;;4.78;2.25;;;;;;;11.50;70.79;101860.69;6191941;23;20398;-85
2023/10/17 14:02:08;;;;;;;4.85;2.53;;;;;;;11.49;71.23;101855.78;6220868;23;20022;-81
2023/10/17 14:04:36;;;;;;;2.80;2.20;;;;;;;11.48;71.00;101841.69;6219037;23;20017;-81
2023/10/17 14:07:06;;;;;;;2.80;2.35;;;;;;;11.49;71.59;101842.44;6192632;23;20021;-81
2023/10/17 14:09:33;;;;;;;2.97;2.22;;;;;;;11.50;71.93;101841.28;6192719;23;20024;-81
2023/10/17 14:12:00;;;;;;;2.35;2.20;;;;;;;11.47;71.44;101834.13;6219422;23;20017;-84